EZY21WC EGGD-LFPG
Flight info
| Callsign | EZY21WC |
|---|---|
| Flight time | 0h 54m |
| Altitude | 29000 |
| Route | HAWFA L607 YORQI DCT NUCHU L607 ALHAD UN859 VAPID L18 MID Y803 SFD/N0378F250 UM605 BIBAX |
| Aircraft | A320/M-SDE3FGHIRWY/LB1 |
Departure
| Time | 2026-05-08 19:25 |
|---|---|
| Airport | Bristol Airport (EGGD) |
Arrival
| Time | 2026-05-08 20:20 |
|---|---|
| Airport | Charles de Gaulle International Airport (LFPG) |
| Time | Latitude | Longitude | Altitude | Speed | Heading |
|---|---|---|---|---|---|
| 2026-05-08 19:04 | 51.38571 | -2.70768 | 612 ft | 0 kts | 87° |
| 2026-05-08 19:17 | 51.38573 | -2.70700 | 612 ft | 8 kts | 87° |
| 2026-05-08 19:18 | 51.38557 | -2.70632 | 621 ft | 6 kts | 148° |
| 2026-05-08 19:18 | 51.38549 | -2.70629 | 621 ft | 2 kts | 168° |
| 2026-05-08 19:18 | 51.38522 | -2.70625 | 619 ft | 6 kts | 176° |
| 2026-05-08 19:18 | 51.38492 | -2.70614 | 621 ft | 0 kts | 152° |
| 2026-05-08 19:20 | 51.38488 | -2.70611 | 619 ft | 2 kts | 151° |
| 2026-05-08 19:20 | 51.38479 | -2.70583 | 620 ft | 8 kts | 103° |
| 2026-05-08 19:20 | 51.38459 | -2.70533 | 619 ft | 0 kts | 144° |
| 2026-05-08 19:21 | 51.38458 | -2.70533 | 619 ft | 1 kts | 144° |
| 2026-05-08 19:22 | 51.38432 | -2.70515 | 621 ft | 10 kts | 163° |
| 2026-05-08 19:22 | 51.38342 | -2.70487 | 613 ft | 11 kts | 184° |
| 2026-05-08 19:22 | 51.38318 | -2.70571 | 612 ft | 0 kts | 268° |
| 2026-05-08 19:24 | 51.38318 | -2.70574 | 612 ft | 1 kts | 268° |
| 2026-05-08 19:25 | 51.38309 | -2.70845 | 626 ft | 63 kts | 265° |
| 2026-05-08 19:25 | 51.38264 | -2.71932 | 638 ft | 130 kts | 266° |
| 2026-05-08 19:25 | 51.38198 | -2.73624 | 899 ft | 159 kts | 264° |
| 2026-05-08 19:25 | 51.38138 | -2.75378 | 1720 ft | 157 kts | 264° |
| 2026-05-08 19:26 | 51.38081 | -2.77172 | 2244 ft | 171 kts | 264° |
| 2026-05-08 19:26 | 51.38008 | -2.79186 | 2649 ft | 190 kts | 264° |
| 2026-05-08 19:26 | 51.37926 | -2.81418 | 3012 ft | 215 kts | 264° |
| 2026-05-08 19:26 | 51.37837 | -2.83924 | 3596 ft | 235 kts | 265° |
| 2026-05-08 19:27 | 51.37816 | -2.86610 | 4428 ft | 246 kts | 275° |
| 2026-05-08 19:27 | 51.38403 | -2.89201 | 5370 ft | 254 kts | 307° |
| 2026-05-08 19:27 | 51.39834 | -2.90844 | 6349 ft | 259 kts | 343° |
| 2026-05-08 19:27 | 51.41617 | -2.90890 | 7299 ft | 262 kts | 18° |
| 2026-05-08 19:28 | 51.43117 | -2.89292 | 8215 ft | 262 kts | 54° |
| 2026-05-08 19:28 | 51.43826 | -2.86626 | 9102 ft | 264 kts | 86° |
| 2026-05-08 19:28 | 51.43859 | -2.83688 | 10066 ft | 265 kts | 92° |
| 2026-05-08 19:28 | 51.44026 | -2.80730 | 10922 ft | 272 kts | 74° |
| 2026-05-08 19:29 | 51.44797 | -2.77916 | 11781 ft | 277 kts | 66° |
| 2026-05-08 19:29 | 51.45640 | -2.75124 | 12657 ft | 281 kts | 64° |
| 2026-05-08 19:29 | 51.46558 | -2.72307 | 13290 ft | 294 kts | 64° |
| 2026-05-08 19:29 | 51.47468 | -2.69142 | 13167 ft | 330 kts | 71° |
| 2026-05-08 19:30 | 51.48185 | -2.65600 | 13059 ft | 342 kts | 76° |
| 2026-05-08 19:30 | 51.48791 | -2.61843 | 13105 ft | 344 kts | 78° |
| 2026-05-08 19:30 | 51.49349 | -2.58151 | 13091 ft | 346 kts | 77° |
| 2026-05-08 19:30 | 51.49965 | -2.54419 | 13280 ft | 350 kts | 76° |
| 2026-05-08 19:31 | 51.50637 | -2.50655 | 14154 ft | 352 kts | 75° |
| 2026-05-08 19:31 | 51.51348 | -2.46860 | 14885 ft | 357 kts | 75° |
| 2026-05-08 19:31 | 51.51879 | -2.42950 | 15583 ft | 360 kts | 85° |
| 2026-05-08 19:31 | 51.51941 | -2.38929 | 16276 ft | 363 kts | 96° |
| 2026-05-08 19:32 | 51.51667 | -2.34867 | 16983 ft | 368 kts | 98° |
| 2026-05-08 19:32 | 51.51379 | -2.30763 | 17691 ft | 372 kts | 98° |
| 2026-05-08 19:32 | 51.51089 | -2.26611 | 18383 ft | 377 kts | 98° |
| 2026-05-08 19:32 | 51.50799 | -2.22402 | 18981 ft | 381 kts | 98° |
| 2026-05-08 19:33 | 51.50504 | -2.18151 | 19599 ft | 385 kts | 98° |
| 2026-05-08 19:33 | 51.50203 | -2.13854 | 20211 ft | 389 kts | 99° |
| 2026-05-08 19:33 | 51.49898 | -2.09532 | 20815 ft | 392 kts | 99° |
| 2026-05-08 19:33 | 51.49590 | -2.05156 | 21416 ft | 396 kts | 99° |
| 2026-05-08 19:34 | 51.49283 | -2.00812 | 21989 ft | 399 kts | 99° |
| 2026-05-08 19:34 | 51.48969 | -1.96370 | 22570 ft | 403 kts | 99° |
| 2026-05-08 19:34 | 51.48651 | -1.91881 | 23142 ft | 406 kts | 99° |
| 2026-05-08 19:34 | 51.48331 | -1.87373 | 23689 ft | 410 kts | 99° |
| 2026-05-08 19:35 | 51.48003 | -1.82806 | 24147 ft | 413 kts | 99° |
| 2026-05-08 19:35 | 51.47668 | -1.78209 | 24598 ft | 417 kts | 99° |
| 2026-05-08 19:35 | 51.47326 | -1.73570 | 25052 ft | 420 kts | 99° |
| 2026-05-08 19:35 | 51.46979 | -1.68903 | 25502 ft | 423 kts | 99° |
| 2026-05-08 19:36 | 51.46432 | -1.64260 | 25921 ft | 425 kts | 104° |
| 2026-05-08 19:36 | 51.45798 | -1.59617 | 26350 ft | 428 kts | 104° |
| 2026-05-08 19:36 | 51.45157 | -1.54938 | 26769 ft | 432 kts | 104° |
| 2026-05-08 19:36 | 51.44513 | -1.50228 | 27188 ft | 435 kts | 104° |
| 2026-05-08 19:37 | 51.43860 | -1.45467 | 27606 ft | 438 kts | 104° |
| 2026-05-08 19:37 | 51.43201 | -1.40674 | 28007 ft | 442 kts | 104° |
| 2026-05-08 19:37 | 51.42534 | -1.35846 | 28404 ft | 445 kts | 104° |
| 2026-05-08 19:37 | 51.41860 | -1.30991 | 28800 ft | 449 kts | 104° |
| 2026-05-08 19:38 | 51.41176 | -1.26086 | 29054 ft | 451 kts | 104° |
| 2026-05-08 19:38 | 51.40262 | -1.21372 | 29090 ft | 433 kts | 117° |
| 2026-05-08 19:38 | 51.38741 | -1.17391 | 29087 ft | 419 kts | 131° |
| 2026-05-08 19:38 | 51.36725 | -1.14019 | 29086 ft | 412 kts | 142° |
| 2026-05-08 19:39 | 51.34418 | -1.11340 | 29086 ft | 408 kts | 153° |
| 2026-05-08 19:39 | 51.29372 | -1.07458 | 29082 ft | 405 kts | 158° |
| 2026-05-08 19:40 | 51.24664 | -1.02458 | 29084 ft | 412 kts | 139° |
| 2026-05-08 19:40 | 51.21036 | -0.95317 | 29082 ft | 416 kts | 129° |
| 2026-05-08 19:41 | 51.17555 | -0.87953 | 29077 ft | 416 kts | 129° |
| 2026-05-08 19:41 | 51.14056 | -0.80606 | 29075 ft | 416 kts | 129° |
| 2026-05-08 19:42 | 51.10548 | -0.73262 | 29092 ft | 416 kts | 129° |
| 2026-05-08 19:42 | 51.07040 | -0.65941 | 29087 ft | 416 kts | 129° |
| 2026-05-08 19:43 | 51.03771 | -0.58333 | 29087 ft | 418 kts | 123° |
| 2026-05-08 19:43 | 51.00725 | -0.50466 | 29076 ft | 418 kts | 123° |
| 2026-05-08 19:44 | 50.97666 | -0.42607 | 29071 ft | 418 kts | 123° |
| 2026-05-08 19:44 | 50.94598 | -0.34756 | 29068 ft | 419 kts | 123° |
| 2026-05-08 19:45 | 50.91546 | -0.26961 | 29071 ft | 419 kts | 123° |
| 2026-05-08 19:45 | 50.88468 | -0.19123 | 29068 ft | 419 kts | 123° |
| 2026-05-08 19:46 | 50.85380 | -0.11297 | 29067 ft | 419 kts | 123° |
| 2026-05-08 19:46 | 50.80738 | 0.00445 | 29073 ft | 420 kts | 123° |
| 2026-05-08 19:47 | 50.77630 | 0.08259 | 29080 ft | 420 kts | 124° |
| 2026-05-08 19:47 | 50.73805 | 0.15100 | 29082 ft | 415 kts | 143° |
| 2026-05-08 19:48 | 50.69313 | 0.20829 | 29088 ft | 415 kts | 143° |
| 2026-05-08 19:48 | 50.64828 | 0.26573 | 29087 ft | 416 kts | 143° |
| 2026-05-08 19:49 | 50.60359 | 0.32283 | 29086 ft | 416 kts | 143° |
| 2026-05-08 19:49 | 50.55854 | 0.38017 | 29089 ft | 417 kts | 143° |
| 2026-05-08 19:50 | 50.51346 | 0.43739 | 29084 ft | 417 kts | 143° |
| 2026-05-08 19:50 | 50.46828 | 0.49453 | 29082 ft | 417 kts | 143° |
| 2026-05-08 19:51 | 50.42306 | 0.55175 | 29085 ft | 418 kts | 143° |
| 2026-05-08 19:51 | 50.37775 | 0.60880 | 29086 ft | 418 kts | 143° |
| 2026-05-08 19:52 | 50.33238 | 0.66581 | 29082 ft | 418 kts | 143° |
| 2026-05-08 19:52 | 50.28694 | 0.72266 | 29078 ft | 418 kts | 143° |
| 2026-05-08 19:53 | 50.26379 | 0.75159 | 29094 ft | 429 kts | 143° |
| 2026-05-08 19:53 | 50.24037 | 0.78078 | 29094 ft | 433 kts | 143° |
| 2026-05-08 19:53 | 50.21716 | 0.80972 | 28898 ft | 421 kts | 143° |
| 2026-05-08 19:53 | 50.19450 | 0.83803 | 28460 ft | 415 kts | 142° |
| 2026-05-08 19:54 | 50.17210 | 0.86602 | 27956 ft | 410 kts | 142° |
| 2026-05-08 19:54 | 50.14904 | 0.89149 | 27503 ft | 403 kts | 153° |
| 2026-05-08 19:54 | 50.12421 | 0.91164 | 27243 ft | 403 kts | 154° |
| 2026-05-08 19:54 | 50.09939 | 0.93187 | 26987 ft | 402 kts | 154° |
| 2026-05-08 19:55 | 50.07473 | 0.95209 | 26730 ft | 400 kts | 153° |
| 2026-05-08 19:55 | 50.05014 | 0.97221 | 26465 ft | 397 kts | 153° |
| 2026-05-08 19:55 | 50.02577 | 0.99204 | 25987 ft | 393 kts | 153° |
| 2026-05-08 19:55 | 50.00160 | 1.01165 | 25513 ft | 390 kts | 153° |
| 2026-05-08 19:56 | 49.97765 | 1.03104 | 25037 ft | 387 kts | 153° |
| 2026-05-08 19:56 | 49.95383 | 1.05029 | 24542 ft | 384 kts | 153° |
| 2026-05-08 19:56 | 49.93049 | 1.06910 | 24079 ft | 382 kts | 153° |
| 2026-05-08 19:56 | 49.90691 | 1.08810 | 23538 ft | 381 kts | 153° |
| 2026-05-08 19:57 | 49.88343 | 1.10707 | 23014 ft | 379 kts | 153° |
| 2026-05-08 19:57 | 49.86013 | 1.12586 | 22497 ft | 376 kts | 153° |
| 2026-05-08 19:57 | 49.83702 | 1.14451 | 22004 ft | 373 kts | 153° |
| 2026-05-08 19:57 | 49.81413 | 1.16298 | 21515 ft | 370 kts | 153° |
| 2026-05-08 19:58 | 49.79122 | 1.18136 | 21026 ft | 368 kts | 153° |
| 2026-05-08 19:58 | 49.76863 | 1.19942 | 20547 ft | 366 kts | 153° |
| 2026-05-08 19:58 | 49.74634 | 1.21715 | 20075 ft | 364 kts | 153° |
| 2026-05-08 19:58 | 49.72357 | 1.23528 | 19586 ft | 362 kts | 153° |
| 2026-05-08 19:59 | 49.70157 | 1.25285 | 19126 ft | 360 kts | 153° |
| 2026-05-08 19:59 | 49.67935 | 1.27053 | 18660 ft | 358 kts | 153° |
| 2026-05-08 19:59 | 49.65724 | 1.28809 | 18168 ft | 357 kts | 153° |
| 2026-05-08 19:59 | 49.63526 | 1.30558 | 17688 ft | 354 kts | 153° |
| 2026-05-08 20:00 | 49.61353 | 1.32292 | 17235 ft | 350 kts | 153° |
| 2026-05-08 20:00 | 49.59899 | 1.33454 | 16936 ft | 348 kts | 153° |
| 2026-05-08 20:00 | 49.57073 | 1.35703 | 16352 ft | 344 kts | 153° |
| 2026-05-08 20:00 | 49.54952 | 1.37386 | 15922 ft | 341 kts | 153° |
| 2026-05-08 20:01 | 49.53528 | 1.38515 | 15631 ft | 340 kts | 153° |
| 2026-05-08 20:01 | 49.51439 | 1.40172 | 15207 ft | 338 kts | 153° |
| 2026-05-08 20:01 | 49.49350 | 1.41828 | 14777 ft | 337 kts | 153° |
| 2026-05-08 20:01 | 49.47297 | 1.43452 | 14353 ft | 335 kts | 154° |
| 2026-05-08 20:02 | 49.45229 | 1.45084 | 13928 ft | 334 kts | 154° |
| 2026-05-08 20:02 | 49.43160 | 1.46716 | 13464 ft | 333 kts | 154° |
| 2026-05-08 20:02 | 49.41109 | 1.48334 | 13030 ft | 331 kts | 153° |
| 2026-05-08 20:02 | 49.39070 | 1.49939 | 12597 ft | 328 kts | 154° |
| 2026-05-08 20:03 | 49.37038 | 1.51523 | 12190 ft | 325 kts | 155° |
| 2026-05-08 20:03 | 49.34894 | 1.52428 | 11903 ft | 316 kts | 178° |
| 2026-05-08 20:03 | 49.32745 | 1.52305 | 11775 ft | 304 kts | 181° |
| 2026-05-08 20:03 | 49.30700 | 1.52608 | 11575 ft | 287 kts | 173° |
| 2026-05-08 20:04 | 49.28777 | 1.53056 | 11322 ft | 272 kts | 172° |
| 2026-05-08 20:04 | 49.26934 | 1.53495 | 10982 ft | 265 kts | 172° |
| 2026-05-08 20:04 | 49.25112 | 1.53924 | 10690 ft | 264 kts | 172° |
| 2026-05-08 20:04 | 49.23294 | 1.54345 | 10394 ft | 263 kts | 172° |
| 2026-05-08 20:05 | 49.21486 | 1.54759 | 10078 ft | 263 kts | 172° |
| 2026-05-08 20:05 | 49.19673 | 1.55167 | 9743 ft | 262 kts | 172° |
| 2026-05-08 20:05 | 49.17875 | 1.55567 | 9396 ft | 261 kts | 172° |
| 2026-05-08 20:05 | 49.16079 | 1.55967 | 9055 ft | 260 kts | 172° |
| 2026-05-08 20:06 | 49.14294 | 1.56365 | 8716 ft | 258 kts | 172° |
| 2026-05-08 20:06 | 49.12531 | 1.56757 | 8376 ft | 252 kts | 172° |
| 2026-05-08 20:06 | 49.10813 | 1.57140 | 8043 ft | 248 kts | 172° |
| 2026-05-08 20:06 | 49.09110 | 1.57520 | 7715 ft | 246 kts | 172° |
| 2026-05-08 20:07 | 49.07422 | 1.57896 | 7383 ft | 244 kts | 172° |
| 2026-05-08 20:07 | 49.05766 | 1.58263 | 7120 ft | 242 kts | 171° |
| 2026-05-08 20:07 | 49.04210 | 1.59117 | 7077 ft | 241 kts | 144° |
| 2026-05-08 20:07 | 49.03147 | 1.61064 | 7074 ft | 242 kts | 117° |
| 2026-05-08 20:08 | 49.02460 | 1.63416 | 7079 ft | 244 kts | 112° |
| 2026-05-08 20:08 | 49.01829 | 1.65816 | 7066 ft | 244 kts | 112° |
| 2026-05-08 20:08 | 49.01208 | 1.68217 | 7064 ft | 244 kts | 112° |
| 2026-05-08 20:08 | 49.00588 | 1.70626 | 7066 ft | 244 kts | 112° |
| 2026-05-08 20:09 | 48.99970 | 1.73034 | 7067 ft | 244 kts | 112° |
| 2026-05-08 20:09 | 48.99354 | 1.75445 | 7062 ft | 244 kts | 112° |
| 2026-05-08 20:09 | 48.98745 | 1.77839 | 6808 ft | 242 kts | 112° |
| 2026-05-08 20:09 | 48.98139 | 1.80224 | 6496 ft | 241 kts | 112° |
| 2026-05-08 20:10 | 48.97539 | 1.82589 | 6176 ft | 239 kts | 112° |
| 2026-05-08 20:10 | 48.96946 | 1.84933 | 6076 ft | 237 kts | 112° |
| 2026-05-08 20:10 | 48.96352 | 1.87276 | 6078 ft | 238 kts | 112° |
| 2026-05-08 20:10 | 48.95757 | 1.89619 | 5870 ft | 236 kts | 112° |
| 2026-05-08 20:11 | 48.95165 | 1.91936 | 5536 ft | 234 kts | 112° |
| 2026-05-08 20:11 | 48.94572 | 1.94231 | 5211 ft | 232 kts | 112° |
| 2026-05-08 20:11 | 48.94008 | 1.96507 | 5015 ft | 230 kts | 104° |
| 2026-05-08 20:11 | 48.93960 | 1.98918 | 5005 ft | 231 kts | 76° |
| 2026-05-08 20:12 | 48.94730 | 2.01056 | 5009 ft | 234 kts | 55° |
| 2026-05-08 20:12 | 48.95675 | 2.03084 | 5008 ft | 234 kts | 57° |
| 2026-05-08 20:12 | 48.96328 | 2.05320 | 5007 ft | 232 kts | 78° |
| 2026-05-08 20:12 | 48.96569 | 2.07747 | 5008 ft | 232 kts | 85° |
| 2026-05-08 20:13 | 48.96705 | 2.10188 | 5006 ft | 232 kts | 86° |
| 2026-05-08 20:13 | 48.96840 | 2.12642 | 5008 ft | 232 kts | 86° |
| 2026-05-08 20:13 | 48.96980 | 2.15092 | 5006 ft | 232 kts | 85° |
| 2026-05-08 20:13 | 48.97121 | 2.17537 | 5007 ft | 232 kts | 86° |
| 2026-05-08 20:14 | 48.97260 | 2.19956 | 4964 ft | 224 kts | 86° |
| 2026-05-08 20:14 | 48.97392 | 2.22283 | 4758 ft | 218 kts | 85° |
| 2026-05-08 20:14 | 48.97522 | 2.24572 | 4484 ft | 216 kts | 86° |
| 2026-05-08 20:14 | 48.97650 | 2.26840 | 4199 ft | 212 kts | 85° |
| 2026-05-08 20:15 | 48.97771 | 2.28984 | 3925 ft | 194 kts | 85° |
| 2026-05-08 20:15 | 48.97883 | 2.30967 | 3695 ft | 185 kts | 85° |
| 2026-05-08 20:15 | 48.97991 | 2.32905 | 3437 ft | 183 kts | 85° |
| 2026-05-08 20:15 | 48.98098 | 2.34823 | 3185 ft | 182 kts | 85° |
| 2026-05-08 20:16 | 48.98205 | 2.36732 | 2942 ft | 180 kts | 85° |
| 2026-05-08 20:16 | 48.98310 | 2.38626 | 2706 ft | 179 kts | 85° |
| 2026-05-08 20:16 | 48.98415 | 2.40514 | 2465 ft | 178 kts | 85° |
| 2026-05-08 20:16 | 48.98517 | 2.42379 | 2225 ft | 177 kts | 84° |
| 2026-05-08 20:17 | 48.98619 | 2.44218 | 1999 ft | 167 kts | 84° |
| 2026-05-08 20:17 | 48.98707 | 2.45843 | 1776 ft | 144 kts | 85° |
| 2026-05-08 20:17 | 48.98785 | 2.47295 | 1584 ft | 131 kts | 84° |
| 2026-05-08 20:17 | 48.98858 | 2.48647 | 1387 ft | 127 kts | 84° |
| 2026-05-08 20:18 | 48.98933 | 2.49986 | 1231 ft | 127 kts | 84° |
| 2026-05-08 20:18 | 48.99004 | 2.51329 | 1056 ft | 128 kts | 84° |
| 2026-05-08 20:18 | 48.99078 | 2.52692 | 931 ft | 129 kts | 84° |
| 2026-05-08 20:18 | 48.99152 | 2.54062 | 729 ft | 129 kts | 84° |
| 2026-05-08 20:19 | 48.99226 | 2.55431 | 568 ft | 130 kts | 83° |
| 2026-05-08 20:19 | 48.99304 | 2.56804 | 392 ft | 129 kts | 83° |
| 2026-05-08 20:19 | 48.99373 | 2.58069 | 358 ft | 104 kts | 85° |
| 2026-05-08 20:19 | 48.99415 | 2.58902 | 354 ft | 55 kts | 85° |
| 2026-05-08 20:20 | 48.99472 | 2.59268 | 359 ft | 28 kts | 66° |
| 2026-05-08 20:20 | 48.99542 | 2.59498 | 361 ft | 21 kts | 64° |
| 2026-05-08 20:20 | 48.99622 | 2.59685 | 361 ft | 21 kts | 24° |
| 2026-05-08 20:20 | 48.99771 | 2.59679 | 353 ft | 23 kts | 354° |
| 2026-05-08 20:21 | 48.99884 | 2.59664 | 353 ft | 7 kts | 356° |
| 2026-05-08 20:21 | 48.99927 | 2.59660 | 362 ft | 5 kts | 356° |
| 2026-05-08 20:21 | 48.99959 | 2.59657 | 356 ft | 4 kts | 355° |
| 2026-05-08 20:21 | 48.99984 | 2.59653 | 354 ft | 3 kts | 354° |